createdAt,value
2019-03-06T00:01:42.910Z,7.67
2019-03-06T00:07:23.441Z,5.97
2019-03-06T00:09:55.119Z,9.83
2019-03-06T00:12:26.114Z,5.90
2019-03-06T00:15:03.511Z,6.27
2019-03-06T00:17:36.851Z,6.07
2019-03-06T00:20:07.539Z,4.60
2019-03-06T00:22:39.350Z,6.67
2019-03-06T00:25:10.115Z,5.93
2019-03-06T00:27:40.687Z,7.87
2019-03-06T00:30:11.540Z,7.63
2019-03-06T00:32:43.411Z,9.30
2019-03-06T00:35:26.055Z,6.70
2019-03-06T00:37:56.682Z,5.93
2019-03-06T00:40:48.338Z,7.37
2019-03-06T00:43:19.012Z,6.47
2019-03-06T00:45:49.584Z,7.63
2019-03-06T00:48:20.155Z,6.67
2019-03-06T00:50:51.065Z,7.83
2019-03-06T00:53:21.650Z,11.63
2019-03-06T00:55:52.248Z,8.43
2019-03-06T00:58:24.995Z,9.97
2019-03-06T01:01:03.397Z,7.23
2019-03-06T01:03:34.325Z,9.17
2019-03-06T01:06:05.200Z,8.63
2019-03-06T01:08:35.875Z,8.93
2019-03-06T01:11:06.837Z,11.60
2019-03-06T01:13:37.470Z,8.87
2019-03-06T01:16:08.148Z,8.37
2019-03-06T01:18:38.742Z,11.30
2019-03-06T01:21:09.362Z,9.30
2019-03-06T01:23:39.969Z,9.83
2019-03-06T01:26:10.637Z,11.60
2019-03-06T01:28:41.320Z,12.03
2019-03-06T01:31:11.992Z,9.03
2019-03-06T01:33:47.069Z,10.90
2019-03-06T01:36:34.533Z,10.13
2019-03-06T01:39:22.275Z,8.63
2019-03-06T01:42:19.065Z,10.50
2019-03-06T01:44:50.024Z,12.43
2019-03-06T01:47:50.813Z,11.37
2019-03-06T01:50:21.524Z,14.23
2019-03-06T01:52:52.159Z,14.77
2019-03-06T01:55:23.944Z,13.33
2019-03-06T01:58:17.626Z,14.40
2019-03-06T02:00:48.324Z,13.87
2019-03-06T02:03:46.224Z,12.40
2019-03-06T02:06:16.967Z,14.87
2019-03-06T02:08:47.542Z,13.13
2019-03-06T02:11:18.184Z,16.80
2019-03-06T02:13:48.802Z,15.07
2019-03-06T02:16:19.467Z,17.30
2019-03-06T02:18:50.085Z,15.40
2019-03-06T02:21:20.701Z,18.20
2019-03-06T02:23:55.970Z,13.63
2019-03-06T02:26:26.639Z,17.53
2019-03-06T02:28:57.257Z,13.47
2019-03-06T02:31:33.119Z,17.50
2019-03-06T02:34:03.710Z,18.43
2019-03-06T02:36:47.531Z,16.63
2019-03-06T02:39:29.493Z,16.37
2019-03-06T02:42:00.077Z,16.50
2019-03-06T02:44:30.677Z,16.90
2019-03-06T02:47:01.516Z,17.23
2019-03-06T02:49:32.199Z,13.40
2019-03-06T02:52:02.893Z,19.37
2019-03-06T02:54:39.327Z,17.10
2019-03-06T02:57:09.984Z,16.43
2019-03-06T02:59:42.207Z,16.23
2019-03-06T03:02:20.214Z,15.97
2019-03-06T03:04:52.495Z,17.53
2019-03-06T03:07:23.404Z,15.73
2019-03-06T03:09:54.063Z,18.60
2019-03-06T03:12:24.678Z,15.50
2019-03-06T03:14:55.409Z,16.37
2019-03-06T03:17:26.145Z,15.73
2019-03-06T03:19:56.731Z,17.10
2019-03-06T03:22:27.291Z,17.67
2019-03-06T03:24:58.029Z,16.73
2019-03-06T03:27:41.570Z,16.27
2019-03-06T03:30:13.361Z,17.33
2019-03-06T03:32:44.052Z,16.93
2019-03-06T03:35:14.714Z,17.20
2019-03-06T03:37:45.465Z,17.50
2019-03-06T03:40:16.314Z,15.73
2019-03-06T03:42:47.370Z,14.50
2019-03-06T03:45:22.113Z,16.67
2019-03-06T03:47:52.724Z,15.60
2019-03-06T03:50:24.352Z,18.33
2019-03-06T03:52:57.142Z,17.10
2019-03-06T03:55:28.820Z,15.90
2019-03-06T03:58:11.362Z,18.53
2019-03-06T04:00:55.145Z,19.03
2019-03-06T04:04:00.755Z,17.27
2019-03-06T04:06:32.579Z,16.50
2019-03-06T04:09:04.615Z,15.97
2019-03-06T04:11:36.662Z,18.27
2019-03-06T04:14:07.384Z,19.90
2019-03-06T04:16:38.180Z,18.77
2019-03-06T04:19:10.843Z,17.63
2019-03-06T04:21:42.561Z,17.00
2019-03-06T04:24:13.136Z,15.27
2019-03-06T04:26:44.031Z,20.50
2019-03-06T04:29:14.632Z,21.53
2019-03-06T04:31:45.189Z,19.20
2019-03-06T04:34:15.843Z,19.20
2019-03-06T04:36:46.614Z,19.43
2019-03-06T04:39:19.258Z,15.57
2019-03-06T04:41:49.933Z,18.80
2019-03-06T04:44:31.359Z,18.20
2019-03-06T04:47:02.043Z,20.80
2019-03-06T04:49:32.637Z,17.73
2019-03-06T04:52:03.214Z,17.13
2019-03-06T04:54:33.780Z,15.10
2019-03-06T04:57:04.366Z,18.43
2019-03-06T04:59:34.875Z,17.97
2019-03-06T05:02:14.655Z,18.87
2019-03-06T05:04:51.086Z,15.23
2019-03-06T05:07:21.676Z,17.00
2019-03-06T05:09:55.400Z,15.80
2019-03-06T05:12:26.103Z,17.93
2019-03-06T05:14:56.849Z,16.60
2019-03-06T05:17:46.300Z,17.30
2019-03-06T05:20:18.081Z,18.50
2019-03-06T05:22:48.818Z,16.97
2019-03-06T05:25:32.411Z,16.83
2019-03-06T05:28:31.032Z,20.00
2019-03-06T05:31:02.809Z,17.33
2019-03-06T05:33:33.506Z,16.30
2019-03-06T05:36:36.793Z,17.93
2019-03-06T05:39:11.358Z,15.93
2019-03-06T05:41:42.051Z,16.00
2019-03-06T05:44:12.718Z,16.67
2019-03-06T05:46:43.323Z,15.13
2019-03-06T05:49:19.880Z,13.93
2019-03-06T05:51:58.669Z,15.23
2019-03-06T05:54:29.289Z,16.70
2019-03-06T05:56:59.887Z,14.07
2019-03-06T05:59:30.475Z,16.17
2019-03-06T06:02:01.118Z,13.07
2019-03-06T06:04:31.679Z,15.17
2019-03-06T06:07:02.360Z,11.50
2019-03-06T06:09:32.985Z,12.63
2019-03-06T06:12:10.682Z,12.30
2019-03-06T06:14:41.284Z,9.93
2019-03-06T06:17:13.983Z,12.10
2019-03-06T06:19:44.609Z,12.43
2019-03-06T06:22:22.900Z,11.00
2019-03-06T06:25:04.829Z,9.07
2019-03-06T06:27:35.491Z,9.77
2019-03-06T06:30:53.589Z,13.30
2019-03-06T06:33:24.199Z,11.20
2019-03-06T06:36:00.622Z,9.70
2019-03-06T06:38:31.251Z,13.43
2019-03-06T06:41:02.888Z,16.10
2019-03-06T06:43:33.601Z,13.30
2019-03-06T06:46:04.248Z,11.03
2019-03-06T06:48:39.644Z,14.20
2019-03-06T06:51:54.839Z,14.93
2019-03-06T06:54:45.418Z,11.77
2019-03-06T06:57:29.222Z,13.73
2019-03-06T07:00:30.292Z,16.80
2019-03-06T07:03:47.657Z,12.90
2019-03-06T07:06:38.358Z,16.60
2019-03-06T07:09:10.736Z,13.30
2019-03-06T07:12:03.437Z,10.13
2019-03-06T07:14:51.855Z,14.77
2019-03-06T07:17:32.901Z,12.37
2019-03-06T07:20:07.991Z,13.57
2019-03-06T07:23:21.577Z,13.17
2019-03-06T07:26:10.257Z,13.57
2019-03-06T07:28:42.483Z,13.33
2019-03-06T07:31:23.974Z,13.10
2019-03-06T07:33:56.656Z,11.97
2019-03-06T07:36:44.285Z,12.40
2019-03-06T07:39:27.542Z,13.83
2019-03-06T07:42:05.587Z,14.40
2019-03-06T07:44:56.192Z,13.03
2019-03-06T07:47:37.668Z,13.60
2019-03-06T07:50:14.410Z,11.23
2019-03-06T07:53:14.996Z,12.00
2019-03-06T07:55:48.400Z,10.53
2019-03-06T07:58:52.269Z,10.57
2019-03-06T08:01:24.823Z,11.97
2019-03-06T08:04:05.115Z,16.20
2019-03-06T08:06:36.166Z,11.17
2019-03-06T08:09:18.574Z,10.90
2019-03-06T08:11:53.764Z,13.23
2019-03-06T08:14:42.378Z,9.87
2019-03-06T08:17:35.956Z,9.60
2019-03-06T08:20:23.566Z,11.27
2019-03-06T08:23:11.878Z,7.90
2019-03-06T08:25:46.608Z,8.53
2019-03-06T08:28:23.364Z,6.80
2019-03-06T08:31:11.927Z,10.07
2019-03-06T08:33:42.587Z,10.20
2019-03-06T08:36:13.302Z,7.30
2019-03-06T08:38:52.951Z,4.30
2019-03-06T08:41:27.670Z,8.70
2019-03-06T08:43:58.534Z,9.17
2019-03-06T08:46:46.924Z,7.83
2019-03-06T08:49:30.135Z,6.37
2019-03-06T08:52:14.427Z,7.70
2019-03-06T08:55:01.972Z,8.67
2019-03-06T08:57:44.752Z,7.57
2019-03-06T09:00:32.919Z,7.53
2019-03-06T09:03:20.734Z,8.47
2019-03-06T09:06:06.045Z,6.13
2019-03-06T09:08:41.285Z,6.07
2019-03-06T09:11:31.419Z,11.47
2019-03-06T09:14:03.895Z,7.33
2019-03-06T09:16:37.269Z,5.00
2019-03-06T09:19:27.793Z,6.33
2019-03-06T09:22:19.298Z,7.23
2019-03-06T09:24:58.213Z,11.10
2019-03-06T09:27:30.653Z,5.10
2019-03-06T09:30:03.047Z,7.23
2019-03-06T09:32:47.035Z,6.13
2019-03-06T09:35:25.282Z,7.20
2019-03-06T09:38:24.727Z,6.60
2019-03-06T09:41:23.716Z,4.33
2019-03-06T09:44:04.614Z,5.17
2019-03-06T09:47:05.110Z,6.37
2019-03-06T09:49:37.452Z,3.80
2019-03-06T09:52:16.491Z,5.10
2019-03-06T09:55:08.355Z,4.93
2019-03-06T10:00:56.918Z,3.73
2019-03-06T10:03:48.853Z,5.90
2019-03-06T10:06:36.348Z,5.97
2019-03-06T10:09:17.941Z,4.37
2019-03-06T10:11:50.318Z,5.13
2019-03-06T10:14:32.723Z,7.03
2019-03-06T10:17:08.225Z,3.43
2019-03-06T10:19:59.186Z,2.27
2019-03-06T10:22:29.893Z,8.90
2019-03-06T10:25:01.999Z,2.70
2019-03-06T10:27:32.748Z,3.47
2019-03-06T10:30:03.563Z,4.33
2019-03-06T10:32:34.386Z,4.80
2019-03-06T10:35:07.282Z,7.37
2019-03-06T10:37:37.938Z,4.33
2019-03-06T10:40:11.236Z,5.53
2019-03-06T10:42:41.937Z,4.43
2019-03-06T10:45:17.057Z,8.00
2019-03-06T10:47:59.252Z,6.50
2019-03-06T10:50:35.777Z,4.73
2019-03-06T10:53:16.818Z,7.97
2019-03-06T10:55:47.926Z,7.33
2019-03-06T10:58:31.032Z,7.00
2019-03-06T11:01:01.627Z,3.80
2019-03-06T11:04:07.312Z,4.83
2019-03-06T11:06:40.193Z,4.10
2019-03-06T11:09:16.691Z,5.83
2019-03-06T11:12:10.848Z,9.47
2019-03-06T11:14:41.947Z,6.90
2019-03-06T11:17:12.769Z,5.20
2019-03-06T11:19:44.842Z,8.50
2019-03-06T11:22:15.574Z,7.03
2019-03-06T11:24:46.230Z,6.40
2019-03-06T11:27:20.082Z,10.23
2019-03-06T11:29:51.778Z,4.10
2019-03-06T11:32:22.503Z,4.30
2019-03-06T11:34:53.278Z,4.47
2019-03-06T11:37:26.177Z,8.17
2019-03-06T11:39:56.834Z,4.80
2019-03-06T11:42:35.991Z,7.20
2019-03-06T11:45:22.975Z,3.20
2019-03-06T11:47:56.874Z,3.67
2019-03-06T11:50:53.657Z,6.23
2019-03-06T11:53:25.369Z,4.20
2019-03-06T11:56:05.080Z,4.93
2019-03-06T11:58:35.716Z,5.60
2019-03-06T12:01:10.079Z,5.40
2019-03-06T12:03:40.852Z,1.90
2019-03-06T12:06:21.712Z,3.63
2019-03-06T12:09:04.997Z,4.70
2019-03-06T12:11:38.934Z,5.10
2019-03-06T12:14:20.771Z,5.40
2019-03-06T12:16:55.309Z,3.37
2019-03-06T12:19:27.047Z,6.50
2019-03-06T12:21:58.395Z,5.10
2019-03-06T12:24:33.495Z,6.83
2019-03-06T12:27:06.276Z,5.37
2019-03-06T12:29:56.362Z,6.67
2019-03-06T12:32:30.969Z,3.60
2019-03-06T12:35:02.641Z,4.20
2019-03-06T12:37:46.523Z,5.87
2019-03-06T12:40:13.044Z,5.20
2019-03-06T12:42:49.076Z,4.33
2019-03-06T12:45:27.605Z,8.07
2019-03-06T12:48:00.939Z,6.37
2019-03-06T12:50:31.922Z,6.33
2019-03-06T12:53:20.928Z,4.90
2019-03-06T12:55:53.644Z,6.63
2019-03-06T12:58:26.680Z,4.50
2019-03-06T13:00:57.491Z,7.87
2019-03-06T13:03:37.376Z,7.17
2019-03-06T13:06:08.020Z,3.70
2019-03-06T13:08:49.614Z,5.00
2019-03-06T13:11:12.090Z,4.07
2019-03-06T13:13:57.007Z,8.30
2019-03-06T13:16:29.093Z,4.13
2019-03-06T13:19:02.053Z,4.00
2019-03-06T13:21:40.288Z,5.50
2019-03-06T13:24:15.574Z,5.20
2019-03-06T13:26:52.502Z,3.77
2019-03-06T13:29:26.352Z,6.20
2019-03-06T13:32:12.041Z,3.83
2019-03-06T13:34:50.335Z,5.63
2019-03-06T13:37:19.133Z,4.07
2019-03-06T13:39:49.787Z,4.47
2019-03-06T13:42:20.477Z,4.97
2019-03-06T13:44:54.309Z,3.50
2019-03-06T13:47:32.902Z,4.87
2019-03-06T13:50:11.700Z,4.63
2019-03-06T13:52:42.564Z,5.13
2019-03-06T13:55:13.270Z,4.77
2019-03-06T13:58:15.828Z,4.67
2019-03-06T14:00:48.524Z,5.37
2019-03-06T14:03:26.336Z,6.10
2019-03-06T14:06:05.258Z,5.70
2019-03-06T14:08:57.092Z,3.73
2019-03-06T14:11:27.814Z,3.90
2019-03-06T14:13:58.810Z,5.27
2019-03-06T14:16:34.656Z,6.33
2019-03-06T14:19:12.647Z,6.00
2019-03-06T14:21:57.367Z,4.20
2019-03-06T14:24:36.328Z,6.47
2019-03-06T14:27:16.501Z,5.43
2019-03-06T14:29:57.867Z,5.57
2019-03-06T14:32:28.919Z,5.70
2019-03-06T14:35:08.018Z,4.53
2019-03-06T14:37:38.746Z,4.23
2019-03-06T14:40:17.707Z,7.10
2019-03-06T14:42:59.909Z,6.53
2019-03-06T14:45:30.492Z,5.10
2019-03-06T14:48:02.253Z,5.33
2019-03-06T14:50:33.922Z,6.07
2019-03-06T14:53:13.954Z,5.30
2019-03-06T14:55:44.621Z,10.10
2019-03-06T14:58:21.483Z,6.23
2019-03-06T15:00:52.490Z,8.00
2019-03-06T15:03:24.389Z,10.23
2019-03-06T15:05:55.089Z,7.73
2019-03-06T15:08:45.239Z,5.83
2019-03-06T15:11:15.934Z,5.20
2019-03-06T15:13:46.603Z,8.23
2019-03-06T15:16:18.349Z,9.83
2019-03-06T15:21:47.207Z,7.00
2019-03-06T15:24:20.105Z,8.07
2019-03-06T15:26:51.997Z,5.87
2019-03-06T15:29:22.636Z,5.17
2019-03-06T15:31:53.263Z,6.63
2019-03-06T15:34:24.600Z,7.37
2019-03-06T15:37:10.866Z,6.67
2019-03-06T15:39:48.361Z,5.23
2019-03-06T15:42:32.006Z,8.23
2019-03-06T15:45:03.772Z,6.27
2019-03-06T15:47:35.540Z,4.07
2019-03-06T15:50:09.004Z,6.67
2019-03-06T15:52:45.720Z,6.13
2019-03-06T15:55:17.179Z,6.07
2019-03-06T15:57:48.157Z,4.40
2019-03-06T16:00:23.123Z,6.20
2019-03-06T16:02:53.851Z,5.87
2019-03-06T16:05:24.610Z,8.20
2019-03-06T16:07:57.208Z,4.83
2019-03-06T16:10:29.809Z,9.80
2019-03-06T16:13:06.904Z,6.37
2019-03-06T16:15:37.583Z,7.20
2019-03-06T16:18:08.324Z,7.23
2019-03-06T16:20:39.550Z,7.97
2019-03-06T16:23:10.297Z,4.67
2019-03-06T16:25:43.222Z,5.83
2019-03-06T16:28:16.045Z,6.20
2019-03-06T16:30:48.899Z,8.37
2019-03-06T16:33:21.606Z,6.43
2019-03-06T16:35:55.855Z,6.33
2019-03-06T16:38:30.342Z,6.77
2019-03-06T16:41:12.535Z,7.20
2019-03-06T16:44:01.440Z,8.47
2019-03-06T16:46:32.086Z,11.43
2019-03-06T16:49:08.630Z,8.57
2019-03-06T16:51:39.309Z,6.43
2019-03-06T16:54:12.049Z,8.47
2019-03-06T16:56:44.815Z,5.97
2019-03-06T16:59:20.861Z,6.70
2019-03-06T17:01:52.451Z,7.10
2019-03-06T17:04:23.180Z,7.63
2019-03-06T17:06:54.046Z,9.40
2019-03-06T17:09:25.045Z,6.00
2019-03-06T17:11:55.777Z,6.77
2019-03-06T17:14:27.423Z,8.60
2019-03-06T17:16:59.046Z,8.67
2019-03-06T17:19:32.882Z,9.03
2019-03-06T17:22:03.585Z,9.00
2019-03-06T17:24:41.548Z,10.67
2019-03-06T17:27:12.245Z,7.17
2019-03-06T17:29:46.273Z,7.10
2019-03-06T17:32:22.567Z,9.33
2019-03-06T17:34:53.261Z,7.53
2019-03-06T17:37:24.043Z,9.53
2019-03-06T17:40:01.614Z,8.50
2019-03-06T17:42:36.157Z,10.13
2019-03-06T17:45:12.999Z,9.50
2019-03-06T17:47:43.754Z,6.53
2019-03-06T17:50:15.197Z,10.00
2019-03-06T17:52:49.123Z,9.63
2019-03-06T17:55:19.900Z,10.30
2019-03-06T17:57:51.627Z,9.43
2019-03-06T18:00:26.239Z,9.57
2019-03-06T18:02:58.162Z,11.00
2019-03-06T18:05:29.945Z,10.03
2019-03-06T18:08:01.719Z,9.83
2019-03-06T18:10:32.432Z,9.23
2019-03-06T18:13:03.216Z,11.33
2019-03-06T18:15:34.914Z,11.10
2019-03-06T18:18:29.672Z,7.23
2019-03-06T18:21:00.352Z,9.90
2019-03-06T18:23:34.269Z,12.50
2019-03-06T18:26:06.700Z,9.73
2019-03-06T18:28:39.435Z,11.23
2019-03-06T18:31:17.060Z,8.87
2019-03-06T18:33:48.245Z,9.20
2019-03-06T18:36:18.972Z,9.37
2019-03-06T18:39:11.078Z,9.27
2019-03-06T18:41:47.664Z,10.07
2019-03-06T18:44:20.419Z,10.00
2019-03-06T18:46:51.065Z,7.90
2019-03-06T18:49:29.951Z,9.77
2019-03-06T18:52:13.031Z,8.83
2019-03-06T18:55:03.126Z,6.60
2019-03-06T18:57:38.318Z,8.97
2019-03-06T19:00:12.056Z,7.40
2019-03-06T19:02:43.217Z,9.37
2019-03-06T19:05:23.133Z,8.27
2019-03-06T19:07:54.049Z,10.53
2019-03-06T19:10:24.961Z,8.13
2019-03-06T19:13:07.705Z,9.73
2019-03-06T19:15:38.539Z,8.60
2019-03-06T19:18:09.442Z,9.77
2019-03-06T19:20:40.341Z,6.40
2019-03-06T19:23:11.033Z,11.20
2019-03-06T19:25:48.968Z,6.03
2019-03-06T19:28:19.713Z,5.60
2019-03-06T19:30:50.358Z,7.00
2019-03-06T19:33:22.072Z,7.70
2019-03-06T19:35:53.997Z,6.93
2019-03-06T19:38:37.029Z,6.93
2019-03-06T19:41:10.872Z,7.97
2019-03-06T19:43:41.903Z,6.73
2019-03-06T19:46:17.080Z,6.47
2019-03-06T19:48:49.913Z,8.00
2019-03-06T19:51:40.924Z,6.87
2019-03-06T19:54:13.823Z,8.57
2019-03-06T19:56:46.612Z,8.00
2019-03-06T19:59:17.740Z,7.13
2019-03-06T20:01:55.880Z,7.80
2019-03-06T20:04:26.519Z,7.43
2019-03-06T20:06:58.031Z,6.30
2019-03-06T20:09:29.175Z,7.93
2019-03-06T20:12:01.625Z,8.40
2019-03-06T20:14:32.278Z,7.60
2019-03-06T20:17:04.293Z,9.53
2019-03-06T20:19:36.992Z,6.40
2019-03-06T20:22:07.748Z,6.90
2019-03-06T20:24:39.261Z,12.40
2019-03-06T20:27:21.867Z,8.93
2019-03-06T20:29:53.137Z,8.73
2019-03-06T20:32:27.643Z,10.27
2019-03-06T20:35:05.207Z,5.87
2019-03-06T20:37:36.318Z,8.53
2019-03-06T20:40:14.326Z,7.67
2019-03-06T20:42:45.334Z,14.30
2019-03-06T20:45:17.435Z,8.40
2019-03-06T20:47:48.350Z,9.97
2019-03-06T20:50:21.308Z,9.50
2019-03-06T20:52:57.213Z,11.23
2019-03-06T20:55:28.973Z,9.13
2019-03-06T20:58:07.346Z,8.97
2019-03-06T21:00:40.186Z,10.70
2019-03-06T21:03:11.257Z,11.77
2019-03-06T21:05:43.088Z,9.07
2019-03-06T21:08:14.407Z,15.67
2019-03-06T21:10:47.565Z,9.60
2019-03-06T21:13:22.162Z,8.53
2019-03-06T21:16:12.240Z,12.53
2019-03-06T21:18:44.268Z,9.47
2019-03-06T21:21:18.126Z,13.17
2019-03-06T21:23:53.972Z,10.77
2019-03-06T21:26:24.741Z,10.77
2019-03-06T21:29:02.639Z,11.97
2019-03-06T21:31:34.622Z,13.27
2019-03-06T21:34:08.864Z,11.20
2019-03-06T21:36:46.713Z,15.33
2019-03-06T21:39:22.985Z,7.90
2019-03-06T21:41:59.038Z,10.23
2019-03-06T21:44:43.422Z,9.40
2019-03-06T21:47:24.805Z,12.17
2019-03-06T21:50:00.673Z,11.87
2019-03-06T21:52:37.461Z,9.30
2019-03-06T21:55:09.854Z,11.60
2019-03-06T21:57:40.967Z,13.80
2019-03-06T22:00:16.055Z,12.77
2019-03-06T22:03:01.214Z,9.13
2019-03-06T22:05:32.441Z,10.17
2019-03-06T22:08:24.638Z,13.87
2019-03-06T22:10:56.469Z,12.70
2019-03-06T22:13:29.191Z,9.07
2019-03-06T22:16:03.933Z,9.40
2019-03-06T22:18:34.847Z,11.93
2019-03-06T22:21:10.874Z,10.87
2019-03-06T22:24:00.944Z,13.47
2019-03-06T22:26:31.840Z,12.60
2019-03-06T22:29:16.229Z,8.27
2019-03-06T22:31:46.947Z,15.03
2019-03-06T22:34:17.721Z,9.87
2019-03-06T22:36:59.922Z,10.97
2019-03-06T22:39:30.839Z,10.47
2019-03-06T22:42:01.581Z,10.37
2019-03-06T22:44:45.247Z,12.33
2019-03-06T22:47:20.764Z,11.83
2019-03-06T22:49:59.771Z,8.83
2019-03-06T22:52:31.911Z,11.13
2019-03-06T22:55:13.854Z,9.50
2019-03-06T22:57:53.174Z,12.30
2019-03-06T23:00:56.829Z,12.23
2019-03-06T23:03:30.643Z,8.57
2019-03-06T23:06:08.403Z,9.30
2019-03-06T23:08:39.172Z,9.13
2019-03-06T23:11:10.531Z,10.93
2019-03-06T23:13:45.722Z,10.93
2019-03-06T23:16:16.631Z,13.60
2019-03-06T23:18:48.215Z,12.87
2019-03-06T23:21:19.158Z,9.47
2019-03-06T23:23:50.168Z,11.00
2019-03-06T23:26:20.826Z,11.03
2019-03-06T23:28:52.043Z,8.47
2019-03-06T23:31:28.995Z,8.07
2019-03-06T23:34:15.551Z,7.83
2019-03-06T23:36:46.679Z,10.13
2019-03-06T23:39:17.390Z,9.07
2019-03-06T23:41:48.196Z,9.20
2019-03-06T23:44:19.075Z,12.43
2019-03-06T23:46:52.064Z,10.93
2019-03-06T23:49:37.094Z,9.03
2019-03-06T23:52:10.816Z,8.67
2019-03-06T23:54:58.598Z,10.03
2019-03-06T23:57:48.614Z,10.60
